Time;durP1;ratioP1;P1;durP2;ratioP2;P2;SDS_P1;SDS_P2;PMS_P1;PMS_P2;Temp;Humidity;BMP_temperature;BMP_pressure;BME280_temperature;BME280_humidity;BME280_pressure;Samples;Min_cycle;Max_cycle;Signal;HPM_P1;HPM_P2
2021/12/29 00:00:29;;;;;;;4.50;2.10;;;;;;;;;;4994810;28;20054;-66
2021/12/29 00:02:56;;;;;;;7.30;3.00;;;;;;;;;;4994809;28;20129;-66
2021/12/29 00:05:23;;;;;;;;;;;;;;;;;;4994896;28;20451;-65
2021/12/29 00:07:50;;;;;;;5.57;2.30;;;;;;;;;;4994001;28;20341;-66
2021/12/29 00:10:18;;;;;;;7.13;2.53;;;;;;;;;;4978867;28;20055;-65
2021/12/29 00:12:48;;;;;;;8.52;2.20;;;;;;;;;;4990338;28;20054;-65
2021/12/29 00:15:16;;;;;;;5.45;2.15;;;;;;;;;;4980420;28;20092;-66
2021/12/29 00:17:45;;;;;;;8.63;2.00;;;;;;;;;;4994241;28;20105;-66
2021/12/29 00:20:13;;;;;;;6.32;2.53;;;;;;;;;;4994232;28;20058;-66
2021/12/29 00:22:40;;;;;;;11.63;2.03;;;;;;;;;;4993148;28;20085;-67
2021/12/29 00:25:07;;;;;;;8.20;2.30;;;;;;;;;;4992747;28;20058;-66
2021/12/29 00:27:34;;;;;;;9.27;2.20;;;;;;;;;;4994369;28;20323;-67
2021/12/29 00:30:01;;;;;;;5.95;2.13;;;;;;;;;;4994139;28;20108;-68
2021/12/29 00:32:27;;;;;;;5.32;2.38;;;;;;;;;;5008879;28;20077;-68
2021/12/29 00:34:54;;;;;;;6.10;1.98;;;;;;;;;;4994191;28;20458;-67
2021/12/29 00:37:20;;;;;;;10.95;2.45;;;;;;;;;;4994084;28;20438;-67
2021/12/29 00:39:47;;;;;;;12.93;5.30;;;;;;;;;;4992584;28;20077;-67
2021/12/29 00:42:13;;;;;;;8.40;2.95;;;;;;;;;;4983370;28;20446;-67
2021/12/29 00:44:40;;;;;;;10.27;4.38;;;;;;;;;;4973988;28;20051;-67
2021/12/29 00:47:09;;;;;;;8.88;3.45;;;;;;;;;;4982368;28;20054;-67
2021/12/29 00:49:37;;;;;;;8.55;2.40;;;;;;;;;;4993610;28;20050;-67
2021/12/29 00:52:07;;;;;;;10.57;2.53;;;;;;;;;;4993500;28;20456;-67
2021/12/29 00:54:35;;;;;;;7.57;2.60;;;;;;;;;;4993550;28;20490;-67
2021/12/29 00:57:02;;;;;;;7.97;2.47;;;;;;;;;;4993412;28;20490;-67
2021/12/29 00:59:28;;;;;;;10.43;2.22;;;;;;;;;;4984144;28;20396;-67
2021/12/29 01:01:55;;;;;;;9.35;2.30;;;;;;;;;;4975846;28;20058;-67
2021/12/29 01:04:21;;;;;;;7.60;2.95;;;;;;;;;;4993615;28;20076;-67
2021/12/29 01:06:48;;;;;;;7.50;3.03;;;;;;;;;;4993460;28;20046;-68
2021/12/29 01:09:15;;;;;;;13.20;3.67;;;;;;;;;;4993781;28;20104;-67
2021/12/29 01:11:42;;;;;;;13.00;3.10;;;;;;;;;;4993359;28;20050;-67
2021/12/29 01:14:09;;;;;;;10.05;2.80;;;;;;;;;;4993209;28;20566;-68
2021/12/29 01:16:36;;;;;;;11.40;3.47;;;;;;;;;;4993037;28;20050;-68
2021/12/29 01:19:05;;;;;;;11.13;2.70;;;;;;;;;;4993074;28;20070;-68
2021/12/29 01:21:33;;;;;;;14.82;3.22;;;;;;;;;;4993247;28;20112;-68
2021/12/29 01:24:00;;;;;;;15.30;3.10;;;;;;;;;;4993290;28;20062;-68
2021/12/29 01:26:26;;;;;;;12.38;3.78;;;;;;;;;;4993103;28;20109;-68
2021/12/29 01:28:53;;;;;;;12.65;3.53;;;;;;;;;;4993109;28;20050;-68
2021/12/29 01:31:19;;;;;;;21.48;3.97;;;;;;;;;;4993190;28;20442;-68
2021/12/29 01:33:46;;;;;;;16.83;3.80;;;;;;;;;;4993223;28;20046;-68
2021/12/29 01:36:12;;;;;;;16.33;3.20;;;;;;;;;;4992406;28;20125;-68
2021/12/29 01:38:39;;;;;;;17.33;3.42;;;;;;;;;;4979632;28;20557;-69
2021/12/29 01:41:05;;;;;;;15.13;3.28;;;;;;;;;;4991778;28;20112;-68
2021/12/29 01:43:32;;;;;;;12.38;3.67;;;;;;;;;;5007645;28;20494;-68
2021/12/29 01:45:58;;;;;;;15.23;2.70;;;;;;;;;;4992373;28;20380;-68
2021/12/29 01:48:25;;;;;;;15.63;2.97;;;;;;;;;;4992644;28;20046;-68
2021/12/29 01:50:52;;;;;;;17.83;3.35;;;;;;;;;;4992894;28;20054;-68
2021/12/29 01:53:31;;;;;;;14.05;2.63;;;;;;;;;;4992604;28;20046;-68
2021/12/29 01:55:57;;;;;;;13.88;2.92;;;;;;;;;;4992735;28;20097;-68
2021/12/29 01:58:24;;;;;;;17.98;3.58;;;;;;;;;;4992807;28;20093;-68
2021/12/29 02:00:51;;;;;;;12.45;2.13;;;;;;;;;;4992393;28;20109;-68
2021/12/29 02:03:18;;;;;;;15.75;2.30;;;;;;;;;;5007401;28;20133;-68
2021/12/29 02:05:45;;;;;;;17.70;2.75;;;;;;;;;;4992665;28;20121;-68
2021/12/29 02:08:12;;;;;;;13.15;2.08;;;;;;;;;;5007622;28;20058;-68
2021/12/29 02:10:44;;;;;;;11.55;2.28;;;;;;;;;;5007434;28;20473;-68
2021/12/29 02:13:11;;;;;;;12.18;2.33;;;;;;;;;;4992381;28;20058;-68
2021/12/29 02:15:39;;;;;;;;;;;;;;;;;;4993058;28;20050;-68
2021/12/29 02:18:14;;;;;;;12.13;2.05;;;;;;;;;;4992555;28;19926;-68
2021/12/29 02:20:42;;;;;;;12.75;2.75;;;;;;;;;;4992429;28;20124;-68
2021/12/29 02:23:19;;;;;;;14.95;2.45;;;;;;;;;;4992291;28;20077;-68
2021/12/29 02:25:50;;;;;;;11.82;3.13;;;;;;;;;;4992542;28;20066;-68
2021/12/29 02:28:21;;;;;;;18.42;2.90;;;;;;;;;;4992494;28;20487;-68
2021/12/29 02:30:47;;;;;;;11.98;3.13;;;;;;;;;;5007419;28;20050;-68
2021/12/29 02:33:15;;;;;;;11.98;2.72;;;;;;;;;;4995920;28;20050;-68
2021/12/29 02:35:42;;;;;;;13.63;2.13;;;;;;;;;;4996256;28;20105;-68
2021/12/29 02:38:44;;;;;;;13.05;2.30;;;;;;;;;;4996407;28;20042;-68
2021/12/29 02:41:11;;;;;;;8.52;1.80;;;;;;;;;;4992533;28;20047;-69
2021/12/29 02:43:39;;;;;;;8.50;1.50;;;;;;;;;;4996026;28;20077;-70
2021/12/29 02:46:11;;;;;;;11.57;1.90;;;;;;;;;;4995916;28;20552;-70
2021/12/29 02:48:41;;;;;;;8.57;1.77;;;;;;;;;;5011132;28;20454;-70
2021/12/29 02:51:08;;;;;;;9.45;1.65;;;;;;;;;;4996174;28;20050;-70
2021/12/29 02:53:35;;;;;;;6.32;1.13;;;;;;;;;;4996006;28;20053;-70
2021/12/29 02:56:02;;;;;;;6.57;1.40;;;;;;;;;;4996229;28;20046;-68
2021/12/29 02:58:31;;;;;;;9.70;1.40;;;;;;;;;;4995790;28;20058;-68
2021/12/29 03:00:59;;;;;;;12.20;1.83;;;;;;;;;;4995911;28;20362;-68
2021/12/29 03:03:27;;;;;;;7.80;1.65;;;;;;;;;;4995614;28;20058;-68
2021/12/29 03:05:54;;;;;;;6.93;1.55;;;;;;;;;;4995729;28;20391;-68
2021/12/29 03:08:21;;;;;;;11.83;1.50;;;;;;;;;;5010971;28;20105;-67
2021/12/29 03:10:52;;;;;;;6.93;1.33;;;;;;;;;;4995707;28;20454;-68
2021/12/29 03:13:28;;;;;;;6.28;1.10;;;;;;;;;;4995510;28;20105;-68
2021/12/29 03:15:55;;;;;;;6.93;1.13;;;;;;;;;;5010598;28;20447;-70
2021/12/29 03:18:21;;;;;;;7.70;1.25;;;;;;;;;;4995769;28;20082;-70
2021/12/29 03:20:48;;;;;;;7.65;0.65;;;;;;;;;;4995433;28;20545;-70
2021/12/29 03:23:15;;;;;;;3.90;0.52;;;;;;;;;;4995238;28;20503;-68
2021/12/29 03:25:42;;;;;;;3.20;0.60;;;;;;;;;;4994277;28;20108;-68
2021/12/29 03:28:08;;;;;;;3.80;0.60;;;;;;;;;;4994457;28;20100;-68
2021/12/29 03:30:36;;;;;;;5.68;1.33;;;;;;;;;;4994103;28;20050;-68
2021/12/29 03:33:03;;;;;;;;;;;;;;;;;;4995821;28;20050;-68
2021/12/29 03:35:30;;;;;;;5.07;0.68;;;;;;;;;;4995005;28;20349;-68
2021/12/29 03:37:58;;;;;;;2.47;1.00;;;;;;;;;;4995254;28;20057;-68
2021/12/29 03:40:24;;;;;;;4.93;0.70;;;;;;;;;;4995313;28;20089;-70
2021/12/29 03:42:51;;;;;;;4.45;0.80;;;;;;;;;;4994133;28;20456;-69
2021/12/29 03:45:18;;;;;;;5.30;0.82;;;;;;;;;;4994534;28;20054;-69
2021/12/29 03:47:44;;;;;;;2.08;0.50;;;;;;;;;;4994824;28;20054;-69
2021/12/29 03:50:11;;;;;;;4.22;0.82;;;;;;;;;;5009912;28;20097;-68
2021/12/29 03:52:37;;;;;;;2.38;0.60;;;;;;;;;;4995202;28;20446;-69
2021/12/29 03:55:04;;;;;;;2.33;0.45;;;;;;;;;;4994881;28;20489;-69
2021/12/29 03:57:30;;;;;;;3.83;0.68;;;;;;;;;;4995035;28;20050;-69
2021/12/29 03:59:57;;;;;;;3.85;0.50;;;;;;;;;;4994505;28;20050;-69
2021/12/29 04:02:23;;;;;;;4.15;0.63;;;;;;;;;;4994842;28;20465;-69
2021/12/29 04:04:50;;;;;;;3.90;0.60;;;;;;;;;;4994441;28;20141;-71
2021/12/29 04:07:16;;;;;;;3.88;0.70;;;;;;;;;;4994562;28;20533;-71
2021/12/29 04:09:43;;;;;;;5.60;0.70;;;;;;;;;;4994380;28;20117;-73
2021/12/29 04:12:10;;;;;;;3.55;0.63;;;;;;;;;;4994309;28;20561;-72
2021/12/29 04:14:36;;;;;;;4.13;0.60;;;;;;;;;;4994342;28;20510;-72
2021/12/29 04:17:09;;;;;;;5.68;0.50;;;;;;;;;;4994268;28;20100;-72
2021/12/29 04:22:21;;;;;;;3.10;0.60;;;;;;;;;;4994229;28;20112;-73
2021/12/29 04:24:49;;;;;;;3.20;0.47;;;;;;;;;;4994434;28;20058;-73
2021/12/29 04:27:16;;;;;;;3.30;0.50;;;;;;;;;;4994077;28;20576;-73
2021/12/29 04:29:42;;;;;;;2.30;0.50;;;;;;;;;;4994175;28;20104;-73
2021/12/29 04:32:09;;;;;;;3.42;0.47;;;;;;;;;;4994177;28;20050;-73
2021/12/29 04:34:35;;;;;;;1.08;0.30;;;;;;;;;;4994222;28;20042;-73
2021/12/29 04:37:02;;;;;;;1.45;0.50;;;;;;;;;;4994002;28;20128;-73
2021/12/29 04:39:28;;;;;;;1.90;0.30;;;;;;;;;;4994115;28;20105;-73
2021/12/29 04:41:54;;;;;;;1.58;0.30;;;;;;;;;;4993853;28;20564;-72
2021/12/29 04:44:21;;;;;;;2.85;0.65;;;;;;;;;;4994268;28;20511;-72
2021/12/29 04:46:47;;;;;;;3.22;0.52;;;;;;;;;;4993649;28;20442;-72
2021/12/29 04:49:21;;;;;;;1.95;0.77;;;;;;;;;;4993662;28;20469;-72
2021/12/29 04:51:56;;;;;;;3.85;1.23;;;;;;;;;;4993684;28;20046;-71
2021/12/29 04:54:22;;;;;;;2.90;0.70;;;;;;;;;;4993528;28;20054;-71
2021/12/29 04:56:49;;;;;;;4.85;0.60;;;;;;;;;;4993832;28;20054;-71
2021/12/29 04:59:16;;;;;;;2.55;0.55;;;;;;;;;;4992538;28;20050;-71
2021/12/29 05:01:43;;;;;;;1.35;0.32;;;;;;;;;;4993398;28;20499;-71
2021/12/29 05:04:12;;;;;;;1.53;0.20;;;;;;;;;;4993447;28;20070;-71
2021/12/29 05:09:24;;;;;;;1.60;0.35;;;;;;;;;;4993446;28;20466;-71
2021/12/29 05:11:50;;;;;;;2.05;0.20;;;;;;;;;;4993185;28;20537;-71
2021/12/29 05:14:17;;;;;;;1.23;0.25;;;;;;;;;;4993785;28;20054;-71
2021/12/29 05:16:43;;;;;;;0.63;0.20;;;;;;;;;;4993381;28;20050;-71
2021/12/29 05:19:09;;;;;;;0.28;0.28;;;;;;;;;;4993379;28;20058;-71
2021/12/29 05:21:36;;;;;;;1.77;0.20;;;;;;;;;;4992974;28;20490;-71
2021/12/29 05:24:03;;;;;;;0.40;0.10;;;;;;;;;;4993373;28;20046;-71
2021/12/29 05:26:29;;;;;;;1.23;0.30;;;;;;;;;;4993253;28;20482;-71
2021/12/29 05:28:56;;;;;;;2.35;0.15;;;;;;;;;;4993217;28;20105;-71
2021/12/29 05:31:25;;;;;;;1.30;0.10;;;;;;;;;;4993279;28;20386;-70
2021/12/29 05:33:51;;;;;;;0.25;0.25;;;;;;;;;;4992739;28;20524;-70
2021/12/29 05:36:18;;;;;;;0.30;0.20;;;;;;;;;;4992919;28;20553;-70
2021/12/29 05:38:44;;;;;;;1.02;0.32;;;;;;;;;;4992832;28;20046;-70
2021/12/29 05:41:11;;;;;;;1.02;0.20;;;;;;;;;;4993071;28;20046;-70
2021/12/29 05:43:37;;;;;;;0.57;0.20;;;;;;;;;;4993049;28;20088;-70
2021/12/29 05:46:04;;;;;;;0.30;0.28;;;;;;;;;;4993147;28;20087;-70
2021/12/29 05:48:31;;;;;;;1.77;0.43;;;;;;;;;;4992794;28;20486;-70
2021/12/29 05:50:57;;;;;;;0.63;0.50;;;;;;;;;;4992827;28;20058;-70
2021/12/29 05:53:24;;;;;;;0.77;0.70;;;;;;;;;;4991352;28;20498;-70
2021/12/29 05:55:50;;;;;;;1.13;0.80;;;;;;;;;;4993191;28;20477;-70
2021/12/29 05:58:17;;;;;;;1.27;1.00;;;;;;;;;;4992342;28;20478;-70
2021/12/29 06:00:43;;;;;;;1.80;1.00;;;;;;;;;;4992900;28;20569;-70
2021/12/29 06:03:10;;;;;;;1.23;1.00;;;;;;;;;;4992772;28;20054;-70
2021/12/29 06:05:37;;;;;;;1.50;1.13;;;;;;;;;;4992716;28;20046;-70
2021/12/29 06:08:04;;;;;;;2.63;1.53;;;;;;;;;;4991932;28;20474;-70
2021/12/29 06:10:31;;;;;;;2.83;1.60;;;;;;;;;;4992405;28;20046;-69
2021/12/29 06:12:58;;;;;;;1.95;1.58;;;;;;;;;;4992231;28;20058;-69
2021/12/29 06:15:24;;;;;;;1.50;1.17;;;;;;;;;;4992319;28;20472;-69
2021/12/29 06:17:51;;;;;;;2.28;1.80;;;;;;;;;;4992300;28;20438;-69
2021/12/29 06:20:17;;;;;;;2.72;1.38;;;;;;;;;;4992563;28;20047;-69
2021/12/29 06:22:44;;;;;;;2.92;1.92;;;;;;;;;;4992484;28;20112;-69
2021/12/29 06:25:11;;;;;;;2.50;1.98;;;;;;;;;;4990910;28;20054;-69
2021/12/29 06:27:39;;;;;;;2.15;1.80;;;;;;;;;;4992457;28;20101;-69
2021/12/29 06:30:06;;;;;;;3.10;1.90;;;;;;;;;;4992291;28;20046;-69
2021/12/29 06:32:33;;;;;;;2.80;2.13;;;;;;;;;;4992445;28;20280;-69
2021/12/29 06:34:59;;;;;;;2.53;1.80;;;;;;;;;;4992283;28;20046;-68
2021/12/29 06:37:29;;;;;;;3.15;2.13;;;;;;;;;;4992159;28;20413;-69
2021/12/29 06:39:55;;;;;;;2.70;2.22;;;;;;;;;;4992077;28;20530;-68
2021/12/29 06:42:23;;;;;;;2.13;1.73;;;;;;;;;;5007015;28;20047;-68
2021/12/29 06:44:49;;;;;;;2.50;1.77;;;;;;;;;;4992026;28;20561;-68
2021/12/29 06:47:16;;;;;;;3.95;1.95;;;;;;;;;;4990818;28;20787;-68
2021/12/29 06:49:43;;;;;;;2.90;1.67;;;;;;;;;;4991897;28;20450;-68
2021/12/29 06:52:10;;;;;;;2.60;1.55;;;;;;;;;;4992032;28;20054;-68
2021/12/29 06:54:37;;;;;;;2.35;1.50;;;;;;;;;;4992335;28;20054;-67
2021/12/29 06:57:04;;;;;;;2.23;1.60;;;;;;;;;;4992293;28;20050;-68
2021/12/29 06:59:30;;;;;;;2.27;1.60;;;;;;;;;;4990668;28;20700;-68
2021/12/29 07:01:57;;;;;;;2.25;1.60;;;;;;;;;;4992193;28;20292;-68
2021/12/29 07:04:24;;;;;;;2.10;1.50;;;;;;;;;;4992225;28;20115;-67
2021/12/29 07:06:51;;;;;;;2.08;1.40;;;;;;;;;;4991809;28;20938;-67
2021/12/29 07:09:18;;;;;;;2.40;2.00;;;;;;;;;;4991782;28;20054;-67
2021/12/29 07:11:45;;;;;;;2.33;1.85;;;;;;;;;;4991702;28;20558;-68
2021/12/29 07:14:11;;;;;;;2.72;1.98;;;;;;;;;;4991661;28;20062;-68
2021/12/29 07:16:38;;;;;;;2.22;1.80;;;;;;;;;;4991816;28;20050;-69
2021/12/29 07:19:06;;;;;;;3.45;1.98;;;;;;;;;;4994681;28;20462;-69
2021/12/29 07:21:32;;;;;;;3.53;1.75;;;;;;;;;;4995506;28;20438;-69
2021/12/29 07:23:59;;;;;;;2.88;1.88;;;;;;;;;;4995307;28;20547;-70
2021/12/29 07:26:30;;;;;;;2.25;1.65;;;;;;;;;;4995568;28;20050;-69
2021/12/29 07:28:57;;;;;;;2.65;2.10;;;;;;;;;;4995169;28;20482;-70
2021/12/29 07:31:23;;;;;;;3.08;1.60;;;;;;;;;;4995105;28;20449;-69
2021/12/29 07:34:10;;;;;;;2.08;1.70;;;;;;;;;;4995063;28;20562;-70
2021/12/29 07:36:36;;;;;;;2.25;1.30;;;;;;;;;;4995368;28;20085;-68
2021/12/29 07:39:03;;;;;;;1.27;1.10;;;;;;;;;;4991460;28;20050;-69
2021/12/29 07:41:30;;;;;;;1.17;0.82;;;;;;;;;;4975493;28;20183;-70
2021/12/29 07:44:03;;;;;;;0.65;0.60;;;;;;;;;;4975107;28;20043;-70
2021/12/29 07:46:33;;;;;;;0.70;0.70;;;;;;;;;;4975036;28;20122;-70
2021/12/29 07:49:00;;;;;;;0.70;0.70;;;;;;;;;;4990154;28;20085;-72
2021/12/29 07:51:26;;;;;;;0.45;0.45;;;;;;;;;;4984195;28;20038;-72
2021/12/29 07:53:53;;;;;;;0.63;0.50;;;;;;;;;;4994976;28;20050;-72
2021/12/29 07:56:19;;;;;;;0.95;0.70;;;;;;;;;;4994471;28;20092;-72
2021/12/29 07:58:46;;;;;;;0.50;0.50;;;;;;;;;;4993425;28;20042;-72
2021/12/29 08:01:12;;;;;;;0.65;0.47;;;;;;;;;;4993395;28;20054;-70
2021/12/29 08:03:40;;;;;;;0.40;0.40;;;;;;;;;;4990450;28;20050;-71
2021/12/29 08:06:06;;;;;;;0.40;0.40;;;;;;;;;;4992095;28;20054;-72
2021/12/29 08:08:33;;;;;;;0.20;0.20;;;;;;;;;;5009725;28;20050;-72
2021/12/29 08:11:00;;;;;;;0.20;0.20;;;;;;;;;;4978739;28;20101;-72
2021/12/29 08:13:26;;;;;;;0.30;0.30;;;;;;;;;;4974610;28;20054;-72
2021/12/29 08:15:53;;;;;;;0.30;0.30;;;;;;;;;;4974937;28;20046;-71
2021/12/29 08:18:19;;;;;;;0.52;0.20;;;;;;;;;;4977330;28;20055;-71
2021/12/29 08:20:46;;;;;;;1.02;0.50;;;;;;;;;;4976872;28;20097;-73
2021/12/29 08:23:12;;;;;;;0.50;0.50;;;;;;;;;;4994380;28;20050;-73
2021/12/29 08:25:39;;;;;;;0.70;0.43;;;;;;;;;;4994261;28;20100;-73
2021/12/29 08:28:06;;;;;;;0.70;0.52;;;;;;;;;;4994486;28;20461;-73
2021/12/29 08:30:33;;;;;;;0.40;0.40;;;;;;;;;;4991002;28;20046;-73
2021/12/29 08:32:59;;;;;;;0.50;0.50;;;;;;;;;;4974323;28;20081;-73
2021/12/29 08:35:27;;;;;;;0.70;0.70;;;;;;;;;;4979212;28;20653;-72
2021/12/29 08:37:54;;;;;;;1.15;0.65;;;;;;;;;;4972951;28;20491;-72
2021/12/29 08:40:20;;;;;;;1.25;0.85;;;;;;;;;;4974134;28;20043;-73
2021/12/29 08:42:48;;;;;;;1.07;1.00;;;;;;;;;;4974280;28;20125;-73
2021/12/29 08:45:18;;;;;;;1.60;1.30;;;;;;;;;;4973927;28;20501;-74
2021/12/29 08:47:45;;;;;;;1.98;1.42;;;;;;;;;;4973772;28;20050;-74
2021/12/29 08:50:14;;;;;;;1.95;1.30;;;;;;;;;;4974190;28;20043;-75
2021/12/29 08:52:41;;;;;;;1.63;1.27;;;;;;;;;;4974015;28;20046;-76
2021/12/29 08:55:08;;;;;;;2.10;1.35;;;;;;;;;;4973858;28;20043;-76
2021/12/29 08:57:35;;;;;;;1.25;0.90;;;;;;;;;;4974059;28;20050;-75
2021/12/29 09:00:03;;;;;;;1.75;0.80;;;;;;;;;;4972736;28;20101;-74
2021/12/29 09:02:29;;;;;;;1.30;0.50;;;;;;;;;;4973818;28;20097;-75
2021/12/29 09:04:56;;;;;;;1.30;0.65;;;;;;;;;;4973910;28;20142;-74
2021/12/29 09:07:22;;;;;;;2.47;0.57;;;;;;;;;;4976300;28;20055;-75
2021/12/29 09:09:49;;;;;;;0.82;0.60;;;;;;;;;;4993532;28;20058;-74
2021/12/29 09:12:15;;;;;;;2.08;1.00;;;;;;;;;;4992971;28;20058;-74
2021/12/29 09:14:44;;;;;;;0.80;0.70;;;;;;;;;;4993663;28;20054;-74
2021/12/29 09:17:11;;;;;;;1.02;0.70;;;;;;;;;;4993390;28;20077;-74
2021/12/29 09:19:42;;;;;;;0.60;0.60;;;;;;;;;;4992765;28;20081;-72
2021/12/29 09:22:09;;;;;;;1.15;0.52;;;;;;;;;;4993367;28;20051;-71
2021/12/29 09:24:35;;;;;;;0.40;0.40;;;;;;;;;;4993115;28;20125;-72
2021/12/29 09:27:02;;;;;;;0.40;0.30;;;;;;;;;;4993278;28;20054;-72
2021/12/29 09:29:32;;;;;;;1.00;0.30;;;;;;;;;;4982807;28;20050;-71
2021/12/29 09:31:58;;;;;;;0.40;0.40;;;;;;;;;;4973598;28;20047;-72
2021/12/29 09:34:25;;;;;;;1.27;0.40;;;;;;;;;;4977853;28;20042;-72
2021/12/29 09:36:51;;;;;;;0.55;0.47;;;;;;;;;;5007723;28;20116;-72
2021/12/29 09:39:18;;;;;;;1.45;0.50;;;;;;;;;;4992576;28;20043;-71
2021/12/29 09:41:45;;;;;;;1.08;0.40;;;;;;;;;;4992109;28;20379;-71
2021/12/29 09:44:11;;;;;;;1.80;0.50;;;;;;;;;;4993050;28;20058;-71
2021/12/29 09:46:38;;;;;;;0.88;0.47;;;;;;;;;;4992734;28;20109;-71
2021/12/29 09:49:05;;;;;;;0.88;0.63;;;;;;;;;;4989288;28;20451;-71
2021/12/29 09:51:31;;;;;;;0.85;0.50;;;;;;;;;;4972762;28;20408;-70
2021/12/29 09:53:58;;;;;;;0.85;0.77;;;;;;;;;;4990500;28;20050;-70
2021/12/29 09:56:27;;;;;;;1.38;0.70;;;;;;;;;;4992534;28;20085;-70
2021/12/29 09:58:55;;;;;;;0.63;0.60;;;;;;;;;;4992494;28;20050;-72
2021/12/29 10:01:21;;;;;;;1.83;0.90;;;;;;;;;;4992989;28;20054;-72
2021/12/29 10:03:48;;;;;;;1.37;0.70;;;;;;;;;;4992240;28;20072;-72
2021/12/29 10:06:15;;;;;;;2.90;0.75;;;;;;;;;;4978660;28;20110;-70
2021/12/29 10:08:47;;;;;;;3.60;1.08;;;;;;;;;;4989608;28;20046;-70
2021/12/29 10:11:17;;;;;;;2.35;0.88;;;;;;;;;;4992158;28;20046;-71
2021/12/29 10:13:46;;;;;;;2.97;1.00;;;;;;;;;;4987231;28;20046;-70
2021/12/29 10:16:14;;;;;;;1.45;0.98;;;;;;;;;;4971905;28;20127;-71
2021/12/29 10:18:43;;;;;;;3.00;0.88;;;;;;;;;;4977890;28;20046;-70
2021/12/29 10:21:14;;;;;;;2.40;0.98;;;;;;;;;;4992127;28;20054;-71
2021/12/29 10:23:42;;;;;;;3.80;1.45;;;;;;;;;;4992441;28;20121;-71
2021/12/29 10:26:31;;;;;;;5.32;1.27;;;;;;;;;;4992128;28;20133;-70
2021/12/29 10:29:01;;;;;;;2.35;1.35;;;;;;;;;;4991758;28;20121;-72
2021/12/29 10:31:29;;;;;;;2.00;1.00;;;;;;;;;;4992013;28;20166;-71
2021/12/29 10:34:02;;;;;;;3.10;0.70;;;;;;;;;;4992059;28;20078;-70
2021/12/29 10:36:34;;;;;;;2.00;0.77;;;;;;;;;;4992313;28;20454;-70
2021/12/29 10:39:21;;;;;;;3.10;0.80;;;;;;;;;;4973019;28;20043;-70
2021/12/29 10:41:51;;;;;;;4.13;1.48;;;;;;;;;;4976415;28;20047;-70
2021/12/29 10:44:49;;;;;;;2.95;1.77;;;;;;;;;;4977032;28;20050;-70
2021/12/29 10:47:18;;;;;;;2.25;1.15;;;;;;;;;;4972354;28;20082;-70
2021/12/29 10:49:58;;;;;;;4.30;0.80;;;;;;;;;;4980723;28;20058;-69
2021/12/29 10:52:29;;;;;;;2.83;0.85;;;;;;;;;;4982240;28;20097;-69
2021/12/29 10:54:56;;;;;;;1.80;0.55;;;;;;;;;;4995770;28;20054;-68
2021/12/29 10:57:22;;;;;;;3.08;0.60;;;;;;;;;;4992429;28;20046;-71
2021/12/29 10:59:52;;;;;;;2.13;0.40;;;;;;;;;;4994134;28;20069;-66
2021/12/29 11:02:24;;;;;;;2.65;0.47;;;;;;;;;;4995725;28;20392;-69
2021/12/29 11:04:55;;;;;;;1.00;0.30;;;;;;;;;;4995975;28;20527;-70
2021/12/29 11:07:25;;;;;;;2.83;0.70;;;;;;;;;;4995621;28;20054;-71
2021/12/29 11:09:51;;;;;;;3.13;0.40;;;;;;;;;;4995654;28;20050;-70
2021/12/29 11:12:20;;;;;;;1.98;0.30;;;;;;;;;;4995306;28;20449;-70
2021/12/29 11:14:52;;;;;;;2.25;0.55;;;;;;;;;;4996082;28;20079;-69
2021/12/29 11:17:21;;;;;;;1.67;0.50;;;;;;;;;;4995468;28;20054;-73
2021/12/29 11:19:52;;;;;;;3.33;0.70;;;;;;;;;;4995761;28;20054;-75
2021/12/29 11:22:20;;;;;;;2.50;0.50;;;;;;;;;;4995414;28;20085;-69
2021/12/29 11:24:52;;;;;;;2.95;0.60;;;;;;;;;;4994684;28;20058;-70
2021/12/29 11:27:19;;;;;;;1.90;0.40;;;;;;;;;;4994919;28;20491;-69
2021/12/29 11:29:48;;;;;;;3.10;0.40;;;;;;;;;;4995401;28;20195;-69
2021/12/29 11:32:18;;;;;;;7.93;5.13;;;;;;;;;;4984210;28;20046;-69
2021/12/29 11:34:45;;;;;;;7.80;2.28;;;;;;;;;;4992947;28;20097;-67
2021/12/29 11:37:13;;;;;;;6.50;2.40;;;;;;;;;;4995407;28;20058;-69
2021/12/29 11:39:41;;;;;;;3.97;2.00;;;;;;;;;;4995094;28;20050;-67
2021/12/29 11:42:08;;;;;;;3.25;1.25;;;;;;;;;;5010262;28;20058;-67
2021/12/29 11:44:35;;;;;;;3.57;1.00;;;;;;;;;;4995294;28;20461;-65
2021/12/29 11:47:03;;;;;;;5.20;1.10;;;;;;;;;;4994950;28;20296;-67
2021/12/29 11:49:29;;;;;;;4.07;1.40;;;;;;;;;;4995190;28;20054;-66
2021/12/29 11:52:05;;;;;;;4.15;1.10;;;;;;;;;;4994732;28;20490;-67
2021/12/29 11:54:47;;;;;;;5.93;1.30;;;;;;;;;;4983046;28;20558;-68
2021/12/29 11:57:20;;;;;;;8.68;2.33;;;;;;;;;;4994466;28;20491;-67
2021/12/29 11:59:47;;;;;;;3.88;1.50;;;;;;;;;;4994995;28;20054;-68
2021/12/29 12:02:28;;;;;;;9.00;1.80;;;;;;;;;;4994888;28;20049;-66
2021/12/29 12:05:07;;;;;;;6.32;2.05;;;;;;;;;;4993770;28;20132;-67
2021/12/29 12:07:33;;;;;;;6.97;1.27;;;;;;;;;;4994824;28;20054;-67
2021/12/29 12:10:07;;;;;;;5.82;1.08;;;;;;;;;;4994492;28;20490;-68
2021/12/29 12:12:37;;;;;;;3.60;0.90;;;;;;;;;;4994248;28;20059;-66
2021/12/29 12:15:08;;;;;;;7.55;1.60;;;;;;;;;;4994783;28;20047;-68
2021/12/29 12:17:35;;;;;;;5.72;1.63;;;;;;;;;;5009536;28;20101;-68
2021/12/29 12:20:08;;;;;;;5.85;1.33;;;;;;;;;;5009637;28;20093;-70
2021/12/29 12:22:40;;;;;;;9.13;2.67;;;;;;;;;;4991974;28;20128;-68
2021/12/29 12:25:07;;;;;;;9.88;2.90;;;;;;;;;;4986581;28;20090;-69
2021/12/29 12:27:41;;;;;;;8.27;2.38;;;;;;;;;;4984181;28;20101;-69
2021/12/29 12:30:08;;;;;;;10.30;3.65;;;;;;;;;;4974649;28;20450;-72
2021/12/29 12:32:51;;;;;;;9.07;2.50;;;;;;;;;;4987636;28;20051;-67
2021/12/29 12:35:34;;;;;;;10.40;2.80;;;;;;;;;;4988049;28;20046;-69
2021/12/29 12:38:21;;;;;;;13.07;3.00;;;;;;;;;;4979951;28;20081;-66
2021/12/29 12:40:48;;;;;;;;;;;;;;;;;;4988590;28;20093;-68
2021/12/29 12:43:16;;;;;;;14.38;3.13;;;;;;;;;;4985583;28;19972;-69
2021/12/29 12:45:44;;;;;;;14.43;3.40;;;;;;;;;;4994020;28;20050;-68
2021/12/29 12:48:12;;;;;;;11.95;2.55;;;;;;;;;;4977047;28;20082;-69
2021/12/29 12:50:40;;;;;;;13.50;3.63;;;;;;;;;;4986041;28;20055;-68
2021/12/29 12:53:07;;;;;;;14.52;3.05;;;;;;;;;;4976651;28;20046;-68
2021/12/29 12:55:47;;;;;;;13.73;3.58;;;;;;;;;;4993595;28;20097;-68
2021/12/29 12:58:15;;;;;;;15.02;3.40;;;;;;;;;;4993554;28;20046;-69
2021/12/29 13:00:43;;;;;;;17.25;4.18;;;;;;;;;;4990560;28;20051;-68
2021/12/29 13:03:13;;;;;;;13.63;3.60;;;;;;;;;;4983145;28;20058;-68
2021/12/29 13:05:41;;;;;;;12.98;3.60;;;;;;;;;;4994023;28;20056;-65
2021/12/29 13:08:11;;;;;;;12.93;3.70;;;;;;;;;;4993382;28;20553;-67
2021/12/29 13:10:43;;;;;;;18.20;4.40;;;;;;;;;;4993624;28;20058;-65
2021/12/29 13:13:14;;;;;;;14.90;3.85;;;;;;;;;;4983044;28;20125;-66
2021/12/29 13:15:42;;;;;;;12.90;2.88;;;;;;;;;;4982013;28;20623;-65
2021/12/29 13:18:09;;;;;;;17.95;4.78;;;;;;;;;;4993126;28;20058;-69
2021/12/29 13:20:39;;;;;;;15.68;3.72;;;;;;;;;;4982075;28;20046;-65
2021/12/29 13:23:09;;;;;;;20.02;3.85;;;;;;;;;;4993018;28;20108;-68
2021/12/29 13:25:40;;;;;;;19.77;4.95;;;;;;;;;;4993286;28;20050;-65
2021/12/29 13:28:12;;;;;;;19.67;4.65;;;;;;;;;;4993301;28;20100;-68
2021/12/29 13:30:43;;;;;;;17.15;4.32;;;;;;;;;;4993393;28;20054;-67
2021/12/29 13:33:09;;;;;;;22.55;4.22;;;;;;;;;;4993167;28;20042;-64
2021/12/29 13:35:37;;;;;;;17.33;3.97;;;;;;;;;;4992693;28;20047;-67
2021/12/29 13:38:05;;;;;;;19.83;4.88;;;;;;;;;;4993129;28;20544;-67
2021/12/29 13:40:36;;;;;;;27.60;5.20;;;;;;;;;;4992723;28;20054;-65
2021/12/29 13:43:06;;;;;;;21.13;4.82;;;;;;;;;;4992931;28;20105;-65
2021/12/29 13:45:34;;;;;;;24.88;5.30;;;;;;;;;;4993006;28;20129;-64
2021/12/29 13:48:02;;;;;;;24.42;5.55;;;;;;;;;;4992844;28;20463;-65
2021/12/29 13:50:29;;;;;;;18.50;4.13;;;;;;;;;;4992596;28;20494;-64
2021/12/29 13:53:06;;;;;;;18.77;5.65;;;;;;;;;;4992485;28;20093;-64
2021/12/29 13:55:40;;;;;;;20.60;4.63;;;;;;;;;;4992469;28;20454;-64
2021/12/29 13:58:07;;;;;;;24.02;5.05;;;;;;;;;;4985131;28;20042;-64
2021/12/29 14:00:35;;;;;;;20.63;4.57;;;;;;;;;;4991764;28;20042;-64
2021/12/29 14:03:02;;;;;;;23.75;7.13;;;;;;;;;;4980016;28;20069;-64
2021/12/29 14:05:38;;;;;;;28.30;5.50;;;;;;;;;;4979515;28;20062;-64
2021/12/29 14:08:05;;;;;;;35.03;15.73;;;;;;;;;;4991747;28;20050;-64
2021/12/29 14:10:31;;;;;;;21.77;5.13;;;;;;;;;;4992143;28;20054;-65
2021/12/29 14:13:05;;;;;;;32.40;10.90;;;;;;;;;;4991948;28;20498;-64
2021/12/29 14:15:32;;;;;;;23.65;6.88;;;;;;;;;;4992321;28;20092;-64
2021/12/29 14:17:58;;;;;;;32.10;8.97;;;;;;;;;;4992766;28;20047;-64
2021/12/29 14:20:25;;;;;;;20.50;5.63;;;;;;;;;;4992369;28;20043;-64
2021/12/29 14:23:04;;;;;;;19.25;4.43;;;;;;;;;;4978204;28;20101;-64
2021/12/29 14:25:34;;;;;;;21.40;5.40;;;;;;;;;;4979915;28;20105;-68
2021/12/29 14:28:01;;;;;;;24.40;6.97;;;;;;;;;;4993991;28;20050;-66
2021/12/29 14:30:27;;;;;;;16.90;4.65;;;;;;;;;;4998160;28;20462;-66
2021/12/29 14:33:01;;;;;;;30.88;9.40;;;;;;;;;;4998639;28;20101;-66
2021/12/29 14:35:33;;;;;;;16.15;3.75;;;;;;;;;;4998523;28;20050;-66
2021/12/29 14:38:08;;;;;;;17.38;4.45;;;;;;;;;;4998931;28;20042;-66
2021/12/29 14:40:35;;;;;;;21.20;5.47;;;;;;;;;;4998610;28;20449;-66
2021/12/29 14:43:15;;;;;;;18.60;4.47;;;;;;;;;;4995067;28;20050;-66
2021/12/29 14:45:48;;;;;;;25.73;10.27;;;;;;;;;;4998198;28;20058;-66
2021/12/29 14:48:14;;;;;;;21.85;6.47;;;;;;;;;;4998202;28;20124;-66
2021/12/29 14:50:43;;;;;;;24.90;9.65;;;;;;;;;;4998711;28;20125;-69
2021/12/29 14:53:11;;;;;;;22.80;5.55;;;;;;;;;;4998602;28;20116;-68